sensor_id;sensor_type;location;lat;lon;timestamp;pressure;altitude;pressure_sealevel;temperature;humidity
79703;BME280;69172;52.352;5.006;2023-05-07T00:01:51;101649.19;;;14.47;87.35
79703;BME280;69172;52.352;5.006;2023-05-07T00:04:17;101658.44;;;14.42;87.52
79703;BME280;69172;52.352;5.006;2023-05-07T00:06:42;101631.78;;;14.28;87.33
79703;BME280;69172;52.352;5.006;2023-05-07T00:09:07;101636.06;;;14.28;87.68
79703;BME280;69172;52.352;5.006;2023-05-07T00:11:33;101641.91;;;14.24;87.80
79703;BME280;69172;52.352;5.006;2023-05-07T00:13:59;101659.50;;;14.31;87.86
79703;BME280;69172;52.352;5.006;2023-05-07T00:16:25;101654.25;;;14.29;87.69
79703;BME280;69172;52.352;5.006;2023-05-07T00:18:50;101645.44;;;14.26;87.65
79703;BME280;69172;52.352;5.006;2023-05-07T00:21:16;101643.59;;;14.23;87.46
79703;BME280;69172;52.352;5.006;2023-05-07T00:23:41;101644.94;;;14.17;87.53
79703;BME280;69172;52.352;5.006;2023-05-07T00:26:06;101648.25;;;14.14;87.93
79703;BME280;69172;52.352;5.006;2023-05-07T00:28:33;101654.78;;;14.08;87.82
79703;BME280;69172;52.352;5.006;2023-05-07T00:30:58;101655.84;;;14.11;87.81
79703;BME280;69172;52.352;5.006;2023-05-07T00:33:24;101659.00;;;14.06;87.56
79703;BME280;69172;52.352;5.006;2023-05-07T00:35:51;101656.88;;;13.99;87.42
79703;BME280;69172;52.352;5.006;2023-05-07T00:38:17;101655.56;;;13.91;88.02
79703;BME280;69172;52.352;5.006;2023-05-07T00:40:42;101655.22;;;13.85;88.06
79703;BME280;69172;52.352;5.006;2023-05-07T00:43:07;101655.06;;;13.82;88.38
79703;BME280;69172;52.352;5.006;2023-05-07T00:45:34;101646.56;;;13.84;88.31
79703;BME280;69172;52.352;5.006;2023-05-07T00:48:00;101643.94;;;13.83;87.88
79703;BME280;69172;52.352;5.006;2023-05-07T00:50:27;101651.56;;;13.81;88.19
79703;BME280;69172;52.352;5.006;2023-05-07T00:52:53;101645.03;;;13.71;88.54
79703;BME280;69172;52.352;5.006;2023-05-07T00:55:22;101638.88;;;13.69;88.55
79703;BME280;69172;52.352;5.006;2023-05-07T00:57:49;101642.09;;;13.65;88.50
79703;BME280;69172;52.352;5.006;2023-05-07T01:00:14;101637.56;;;13.61;88.85
79703;BME280;69172;52.352;5.006;2023-05-07T01:02:40;101630.59;;;13.60;88.91
79703;BME280;69172;52.352;5.006;2023-05-07T01:05:07;101649.06;;;13.66;88.97
79703;BME280;69172;52.352;5.006;2023-05-07T01:07:34;101635.06;;;13.63;89.36
79703;BME280;69172;52.352;5.006;2023-05-07T01:10:01;101638.00;;;13.69;89.10
79703;BME280;69172;52.352;5.006;2023-05-07T01:12:28;101639.84;;;13.71;88.76
79703;BME280;69172;52.352;5.006;2023-05-07T01:14:55;101637.75;;;13.81;88.69
79703;BME280;69172;52.352;5.006;2023-05-07T01:17:21;101636.88;;;13.80;88.80
79703;BME280;69172;52.352;5.006;2023-05-07T01:19:47;101652.81;;;13.88;88.82
79703;BME280;69172;52.352;5.006;2023-05-07T01:22:14;101644.81;;;13.83;88.80
79703;BME280;69172;52.352;5.006;2023-05-07T01:24:41;101648.63;;;13.90;88.74
79703;BME280;69172;52.352;5.006;2023-05-07T01:27:06;101642.00;;;13.95;88.46
79703;BME280;69172;52.352;5.006;2023-05-07T01:29:32;101637.53;;;13.92;88.15
79703;BME280;69172;52.352;5.006;2023-05-07T01:31:59;101646.63;;;14.00;88.26
79703;BME280;69172;52.352;5.006;2023-05-07T01:34:27;101627.13;;;13.91;88.21
79703;BME280;69172;52.352;5.006;2023-05-07T01:36:54;101630.50;;;13.90;88.21
79703;BME280;69172;52.352;5.006;2023-05-07T01:39:26;101636.94;;;13.96;87.87
79703;BME280;69172;52.352;5.006;2023-05-07T01:41:56;101634.34;;;13.96;87.92
79703;BME280;69172;52.352;5.006;2023-05-07T01:44:22;101638.84;;;14.00;87.76
79703;BME280;69172;52.352;5.006;2023-05-07T01:46:48;101642.41;;;14.02;87.98
79703;BME280;69172;52.352;5.006;2023-05-07T01:49:15;101632.00;;;14.01;87.36
79703;BME280;69172;52.352;5.006;2023-05-07T01:51:41;101632.94;;;14.03;87.47
79703;BME280;69172;52.352;5.006;2023-05-07T01:54:07;101628.34;;;13.97;87.45
79703;BME280;69172;52.352;5.006;2023-05-07T01:56:40;101627.31;;;13.94;87.81
79703;BME280;69172;52.352;5.006;2023-05-07T01:59:07;101637.16;;;14.01;87.78
79703;BME280;69172;52.352;5.006;2023-05-07T02:01:32;101642.41;;;14.02;87.60
79703;BME280;69172;52.352;5.006;2023-05-07T02:03:58;101643.41;;;14.04;87.56
79703;BME280;69172;52.352;5.006;2023-05-07T02:06:23;101648.56;;;14.04;87.22
79703;BME280;69172;52.352;5.006;2023-05-07T02:08:49;101633.78;;;14.02;87.54
79703;BME280;69172;52.352;5.006;2023-05-07T02:11:15;101619.13;;;14.02;87.36
79703;BME280;69172;52.352;5.006;2023-05-07T02:13:41;101615.75;;;14.03;86.62
79703;BME280;69172;52.352;5.006;2023-05-07T02:16:06;101643.09;;;14.14;86.41
79703;BME280;69172;52.352;5.006;2023-05-07T02:18:50;101643.97;;;14.15;86.25
79703;BME280;69172;52.352;5.006;2023-05-07T02:21:17;101631.03;;;14.15;86.21
79703;BME280;69172;52.352;5.006;2023-05-07T02:23:42;101631.22;;;14.18;85.72
79703;BME280;69172;52.352;5.006;2023-05-07T02:26:08;101614.63;;;14.14;85.72
79703;BME280;69172;52.352;5.006;2023-05-07T02:28:33;101625.13;;;14.17;85.66
79703;BME280;69172;52.352;5.006;2023-05-07T02:31:02;101618.00;;;14.13;85.62
79703;BME280;69172;52.352;5.006;2023-05-07T02:33:29;101630.38;;;14.19;86.02
79703;BME280;69172;52.352;5.006;2023-05-07T02:35:55;101619.72;;;14.13;85.66
79703;BME280;69172;52.352;5.006;2023-05-07T02:38:22;101617.16;;;14.13;85.63
79703;BME280;69172;52.352;5.006;2023-05-07T02:40:47;101624.06;;;14.14;85.80
79703;BME280;69172;52.352;5.006;2023-05-07T02:43:12;101621.41;;;14.12;85.37
79703;BME280;69172;52.352;5.006;2023-05-07T02:45:38;101619.88;;;14.16;85.72
79703;BME280;69172;52.352;5.006;2023-05-07T02:48:04;101624.00;;;14.12;85.08
79703;BME280;69172;52.352;5.006;2023-05-07T02:50:30;101623.13;;;14.12;84.44
79703;BME280;69172;52.352;5.006;2023-05-07T02:52:57;101627.56;;;14.14;84.87
79703;BME280;69172;52.352;5.006;2023-05-07T02:55:23;101630.22;;;14.16;84.69
79703;BME280;69172;52.352;5.006;2023-05-07T02:57:48;101629.34;;;14.15;83.98
79703;BME280;69172;52.352;5.006;2023-05-07T03:00:15;101631.84;;;14.14;84.23
79703;BME280;69172;52.352;5.006;2023-05-07T03:02:41;101640.91;;;14.22;84.30
79703;BME280;69172;52.352;5.006;2023-05-07T03:05:07;101634.53;;;14.15;84.35
79703;BME280;69172;52.352;5.006;2023-05-07T03:07:33;101627.56;;;14.14;84.17
79703;BME280;69172;52.352;5.006;2023-05-07T03:09:59;101623.13;;;14.12;84.26
79703;BME280;69172;52.352;5.006;2023-05-07T03:12:24;101630.38;;;14.19;83.90
79703;BME280;69172;52.352;5.006;2023-05-07T03:14:50;101632.41;;;14.24;84.08
79703;BME280;69172;52.352;5.006;2023-05-07T03:17:15;101624.56;;;14.23;83.76
79703;BME280;69172;52.352;5.006;2023-05-07T03:19:41;101626.66;;;14.30;83.25
79703;BME280;69172;52.352;5.006;2023-05-07T03:22:07;101619.81;;;14.30;82.97
79703;BME280;69172;52.352;5.006;2023-05-07T03:24:33;101639.91;;;14.35;83.12
79703;BME280;69172;52.352;5.006;2023-05-07T03:26:58;101628.66;;;14.34;82.94
79703;BME280;69172;52.352;5.006;2023-05-07T03:29:23;101620.31;;;14.23;82.68
79703;BME280;69172;52.352;5.006;2023-05-07T03:31:49;101613.56;;;14.27;82.11
79703;BME280;69172;52.352;5.006;2023-05-07T03:34:14;101628.22;;;14.26;82.70
79703;BME280;69172;52.352;5.006;2023-05-07T03:36:42;101616.31;;;14.14;83.04
79703;BME280;69172;52.352;5.006;2023-05-07T03:39:07;101629.53;;;14.18;83.84
79703;BME280;69172;52.352;5.006;2023-05-07T03:41:33;101618.56;;;14.08;83.96
79703;BME280;69172;52.352;5.006;2023-05-07T03:43:58;101626.44;;;14.09;84.33
79703;BME280;69172;52.352;5.006;2023-05-07T03:46:24;101619.28;;;14.05;84.94
79703;BME280;69172;52.352;5.006;2023-05-07T03:48:51;101623.59;;;14.05;84.98
79703;BME280;69172;52.352;5.006;2023-05-07T03:51:16;101637.41;;;14.05;85.02
79703;BME280;69172;52.352;5.006;2023-05-07T03:53:42;101616.22;;;13.96;84.35
79703;BME280;69172;52.352;5.006;2023-05-07T03:56:07;101638.22;;;14.04;84.74
79703;BME280;69172;52.352;5.006;2023-05-07T03:58:32;101627.00;;;14.04;84.75
79703;BME280;69172;52.352;5.006;2023-05-07T04:00:58;101619.06;;;14.01;84.25
79703;BME280;69172;52.352;5.006;2023-05-07T04:03:24;101635.53;;;14.03;84.68
79703;BME280;69172;52.352;5.006;2023-05-07T04:05:49;101631.44;;;14.06;84.05
79703;BME280;69172;52.352;5.006;2023-05-07T04:08:14;101631.25;;;14.03;84.56
79703;BME280;69172;52.352;5.006;2023-05-07T04:10:40;101641.72;;;14.05;84.46
79703;BME280;69172;52.352;5.006;2023-05-07T04:13:05;101641.94;;;14.09;84.31
79703;BME280;69172;52.352;5.006;2023-05-07T04:15:30;101643.63;;;14.09;84.36
79703;BME280;69172;52.352;5.006;2023-05-07T04:17:55;101629.47;;;14.02;84.70
79703;BME280;69172;52.352;5.006;2023-05-07T04:20:21;101627.63;;;14.00;84.76
79703;BME280;69172;52.352;5.006;2023-05-07T04:22:46;101626.81;;;14.01;84.83
79703;BME280;69172;52.352;5.006;2023-05-07T04:25:11;101626.03;;;14.02;85.01
79703;BME280;69172;52.352;5.006;2023-05-07T04:27:40;101639.38;;;14.09;84.77
79703;BME280;69172;52.352;5.006;2023-05-07T04:30:06;101642.69;;;14.07;84.73
79703;BME280;69172;52.352;5.006;2023-05-07T04:32:31;101645.75;;;14.16;84.89
79703;BME280;69172;52.352;5.006;2023-05-07T04:34:57;101632.56;;;14.11;84.72
79703;BME280;69172;52.352;5.006;2023-05-07T04:37:22;101652.88;;;14.20;84.95
79703;BME280;69172;52.352;5.006;2023-05-07T04:39:48;101659.00;;;14.22;85.01
79703;BME280;69172;52.352;5.006;2023-05-07T04:42:17;101651.91;;;14.18;84.99
79703;BME280;69172;52.352;5.006;2023-05-07T04:44:43;101648.66;;;14.22;85.15
79703;BME280;69172;52.352;5.006;2023-05-07T04:47:09;101642.47;;;14.18;84.79
79703;BME280;69172;52.352;5.006;2023-05-07T04:49:35;101644.38;;;14.22;85.03
79703;BME280;69172;52.352;5.006;2023-05-07T04:52:00;101651.41;;;14.25;84.84
79703;BME280;69172;52.352;5.006;2023-05-07T04:54:26;101645.84;;;14.17;84.68
79703;BME280;69172;52.352;5.006;2023-05-07T04:56:51;101655.88;;;14.27;84.54
79703;BME280;69172;52.352;5.006;2023-05-07T04:59:17;101654.53;;;14.34;84.64
79703;BME280;69172;52.352;5.006;2023-05-07T05:01:43;101654.16;;;14.28;84.68
79703;BME280;69172;52.352;5.006;2023-05-07T05:04:08;101648.47;;;14.34;84.47
79703;BME280;69172;52.352;5.006;2023-05-07T05:06:33;101640.50;;;14.30;84.34
79703;BME280;69172;52.352;5.006;2023-05-07T05:09:05;101654.72;;;14.37;84.24
79703;BME280;69172;52.352;5.006;2023-05-07T05:11:31;101661.06;;;14.44;83.83
79703;BME280;69172;52.352;5.006;2023-05-07T05:13:57;101661.47;;;14.51;83.66
79703;BME280;69172;52.352;5.006;2023-05-07T05:16:22;101650.66;;;14.42;83.38
79703;BME280;69172;52.352;5.006;2023-05-07T05:18:47;101651.94;;;14.50;83.03
79703;BME280;69172;52.352;5.006;2023-05-07T05:21:13;101642.00;;;14.42;82.69
79703;BME280;69172;52.352;5.006;2023-05-07T05:23:38;101644.75;;;14.45;82.49
79703;BME280;69172;52.352;5.006;2023-05-07T05:26:04;101653.66;;;14.50;82.98
79703;BME280;69172;52.352;5.006;2023-05-07T05:28:29;101645.38;;;14.41;83.11
79703;BME280;69172;52.352;5.006;2023-05-07T05:30:55;101643.06;;;14.45;82.91
79703;BME280;69172;52.352;5.006;2023-05-07T05:33:23;101658.66;;;14.47;83.26
79703;BME280;69172;52.352;5.006;2023-05-07T05:35:49;101669.50;;;14.56;83.24
79703;BME280;69172;52.352;5.006;2023-05-07T05:38:15;101664.16;;;14.53;83.24
79703;BME280;69172;52.352;5.006;2023-05-07T05:40:40;101673.44;;;14.65;82.78
79703;BME280;69172;52.352;5.006;2023-05-07T05:43:06;101675.47;;;14.71;82.92
79703;BME280;69172;52.352;5.006;2023-05-07T05:45:32;101690.44;;;14.76;83.29
79703;BME280;69172;52.352;5.006;2023-05-07T05:47:58;101673.22;;;14.77;82.99
79703;BME280;69172;52.352;5.006;2023-05-07T05:50:24;101692.28;;;14.95;82.78
79703;BME280;69172;52.352;5.006;2023-05-07T05:52:50;101672.66;;;15.00;81.26
79703;BME280;69172;52.352;5.006;2023-05-07T05:55:15;101679.81;;;15.04;81.01
79703;BME280;69172;52.352;5.006;2023-05-07T05:57:40;101692.56;;;15.17;81.30
79703;BME280;69172;52.352;5.006;2023-05-07T06:00:06;101680.44;;;15.16;80.63
79703;BME280;69172;52.352;5.006;2023-05-07T06:02:34;101680.50;;;15.18;79.92
79703;BME280;69172;52.352;5.006;2023-05-07T06:05:02;101692.31;;;15.29;80.22
79703;BME280;69172;52.352;5.006;2023-05-07T06:07:28;101690.81;;;15.34;80.45
79703;BME280;69172;52.352;5.006;2023-05-07T06:09:53;101692.31;;;15.29;80.93
79703;BME280;69172;52.352;5.006;2023-05-07T06:12:20;101681.25;;;15.15;81.19
79703;BME280;69172;52.352;5.006;2023-05-07T06:14:46;101695.63;;;15.26;80.88
79703;BME280;69172;52.352;5.006;2023-05-07T06:17:11;101689.03;;;15.33;80.49
79703;BME280;69172;52.352;5.006;2023-05-07T06:19:36;101691.88;;;15.37;80.55
79703;BME280;69172;52.352;5.006;2023-05-07T06:22:02;101706.44;;;15.69;80.11
79703;BME280;69172;52.352;5.006;2023-05-07T06:24:28;101696.22;;;15.72;79.34
79703;BME280;69172;52.352;5.006;2023-05-07T06:26:54;101695.31;;;15.72;79.15
79703;BME280;69172;52.352;5.006;2023-05-07T06:29:20;101703.97;;;15.90;79.12
79703;BME280;69172;52.352;5.006;2023-05-07T06:31:46;101712.56;;;16.06;78.64
79703;BME280;69172;52.352;5.006;2023-05-07T06:34:11;101718.25;;;16.17;78.69
79703;BME280;69172;52.352;5.006;2023-05-07T06:36:40;101716.06;;;16.07;78.23
79703;BME280;69172;52.352;5.006;2023-05-07T06:39:05;101720.50;;;16.09;78.72
79703;BME280;69172;52.352;5.006;2023-05-07T06:41:31;101728.94;;;16.23;77.86
79703;BME280;69172;52.352;5.006;2023-05-07T06:43:56;101704.88;;;16.08;78.31
79703;BME280;69172;52.352;5.006;2023-05-07T06:46:22;101720.28;;;16.05;78.66
79703;BME280;69172;52.352;5.006;2023-05-07T06:48:47;101724.44;;;16.01;78.98
79703;BME280;69172;52.352;5.006;2023-05-07T06:51:12;101719.19;;;16.00;79.22
79703;BME280;69172;52.352;5.006;2023-05-07T06:53:38;101713.41;;;16.05;78.56
79703;BME280;69172;52.352;5.006;2023-05-07T06:56:03;101722.19;;;16.27;78.10
79703;BME280;69172;52.352;5.006;2023-05-07T06:58:29;101719.94;;;16.34;77.37
79703;BME280;69172;52.352;5.006;2023-05-07T07:00:55;101715.09;;;16.42;76.75
79703;BME280;69172;52.352;5.006;2023-05-07T07:03:20;101723.09;;;16.27;77.48
79703;BME280;69172;52.352;5.006;2023-05-07T07:05:46;101711.94;;;16.30;77.63
79703;BME280;69172;52.352;5.006;2023-05-07T07:08:11;101721.88;;;16.38;77.28
79703;BME280;69172;52.352;5.006;2023-05-07T07:10:36;101714.28;;;16.43;77.09
79703;BME280;69172;52.352;5.006;2023-05-07T07:13:02;101708.81;;;16.37;77.32
79703;BME280;69172;52.352;5.006;2023-05-07T07:15:28;101728.13;;;16.61;77.01
79703;BME280;69172;52.352;5.006;2023-05-07T07:17:53;101707.22;;;16.58;77.00
79703;BME280;69172;52.352;5.006;2023-05-07T07:20:18;101730.81;;;16.62;77.00
79703;BME280;69172;52.352;5.006;2023-05-07T07:22:44;101708.44;;;16.47;76.78
79703;BME280;69172;52.352;5.006;2023-05-07T07:25:09;101721.41;;;16.47;77.35
79703;BME280;69172;52.352;5.006;2023-05-07T07:27:37;101732.00;;;16.51;77.37
79703;BME280;69172;52.352;5.006;2023-05-07T07:30:03;101719.81;;;16.50;77.95
79703;BME280;69172;52.352;5.006;2023-05-07T07:32:29;101717.50;;;16.55;78.55
79703;BME280;69172;52.352;5.006;2023-05-07T07:34:54;101720.44;;;16.62;77.34
79703;BME280;69172;52.352;5.006;2023-05-07T07:37:19;101718.13;;;16.69;77.67
79703;BME280;69172;52.352;5.006;2023-05-07T07:39:45;101720.94;;;16.55;78.08
79703;BME280;69172;52.352;5.006;2023-05-07T07:42:16;101724.81;;;16.46;78.51
79703;BME280;69172;52.352;5.006;2023-05-07T07:44:42;101720.91;;;16.36;78.67
79703;BME280;69172;52.352;5.006;2023-05-07T07:47:07;101718.06;;;16.49;78.18
79703;BME280;69172;52.352;5.006;2023-05-07T07:49:32;101718.06;;;16.49;78.94
79703;BME280;69172;52.352;5.006;2023-05-07T07:51:58;101706.41;;;16.59;78.85
79703;BME280;69172;52.352;5.006;2023-05-07T07:54:24;101713.16;;;16.94;77.57
79703;BME280;69172;52.352;5.006;2023-05-07T07:56:50;101709.91;;;16.98;77.35
79703;BME280;69172;52.352;5.006;2023-05-07T07:59:16;101701.38;;;17.02;77.74
79703;BME280;69172;52.352;5.006;2023-05-07T08:01:44;101715.97;;;17.17;77.29
79703;BME280;69172;52.352;5.006;2023-05-07T08:04:09;101705.81;;;17.04;77.16
79703;BME280;69172;52.352;5.006;2023-05-07T08:06:34;101715.22;;;17.01;77.22
79703;BME280;69172;52.352;5.006;2023-05-07T08:09:00;101721.03;;;17.14;76.74
79703;BME280;69172;52.352;5.006;2023-05-07T08:11:26;101718.00;;;17.05;76.58
79703;BME280;69172;52.352;5.006;2023-05-07T08:13:53;101724.91;;;17.05;76.88
79703;BME280;69172;52.352;5.006;2023-05-07T08:16:18;101720.44;;;16.82;77.13
79703;BME280;69172;52.352;5.006;2023-05-07T08:18:44;101724.72;;;17.00;76.59
79703;BME280;69172;52.352;5.006;2023-05-07T08:21:11;101727.00;;;16.93;77.08
79703;BME280;69172;52.352;5.006;2023-05-07T08:23:37;101731.72;;;16.82;77.31
79703;BME280;69172;52.352;5.006;2023-05-07T08:26:03;101729.47;;;16.71;77.86
79703;BME280;69172;52.352;5.006;2023-05-07T08:28:28;101738.53;;;16.80;78.23
79703;BME280;69172;52.352;5.006;2023-05-07T08:30:54;101734.03;;;16.95;78.32
79703;BME280;69172;52.352;5.006;2023-05-07T08:33:21;101742.72;;;16.96;78.43
79703;BME280;69172;52.352;5.006;2023-05-07T08:35:48;101739.44;;;17.00;78.42
79703;BME280;69172;52.352;5.006;2023-05-07T08:38:13;101744.47;;;17.16;77.15
79703;BME280;69172;52.352;5.006;2023-05-07T08:40:39;101726.41;;;17.19;75.18
79703;BME280;69172;52.352;5.006;2023-05-07T08:43:06;101725.22;;;17.32;74.60
79703;BME280;69172;52.352;5.006;2023-05-07T08:45:33;101737.78;;;17.61;73.70
79703;BME280;69172;52.352;5.006;2023-05-07T08:48:01;101738.50;;;17.58;73.95
79703;BME280;69172;52.352;5.006;2023-05-07T08:50:27;101737.38;;;17.72;73.05
79703;BME280;69172;52.352;5.006;2023-05-07T08:52:53;101749.94;;;17.82;73.54
79703;BME280;69172;52.352;5.006;2023-05-07T08:55:18;101742.56;;;17.72;73.28
79703;BME280;69172;52.352;5.006;2023-05-07T08:57:45;101736.09;;;17.83;73.50
79703;BME280;69172;52.352;5.006;2023-05-07T09:00:10;101740.84;;;18.16;71.72
79703;BME280;69172;52.352;5.006;2023-05-07T09:02:36;101747.63;;;18.33;70.48
79703;BME280;69172;52.352;5.006;2023-05-07T09:05:02;101745.31;;;18.18;72.42
79703;BME280;69172;52.352;5.006;2023-05-07T09:07:28;101760.03;;;18.40;72.34
79703;BME280;69172;52.352;5.006;2023-05-07T09:09:56;101746.16;;;18.62;71.12
79703;BME280;69172;52.352;5.006;2023-05-07T09:15:17;101753.34;;;18.91;69.94
79703;BME280;69172;52.352;5.006;2023-05-07T09:17:43;101755.41;;;19.25;68.93
79703;BME280;69172;52.352;5.006;2023-05-07T09:20:09;101740.22;;;19.37;66.67
79703;BME280;69172;52.352;5.006;2023-05-07T09:22:37;101743.41;;;19.30;66.10
79703;BME280;69172;52.352;5.006;2023-05-07T09:25:06;101755.25;;;19.44;65.94
79703;BME280;69172;52.352;5.006;2023-05-07T09:27:32;101745.53;;;19.65;64.93
79703;BME280;69172;52.352;5.006;2023-05-07T09:29:57;101744.28;;;19.79;65.47
79703;BME280;69172;52.352;5.006;2023-05-07T09:32:22;101752.22;;;19.82;65.70
79703;BME280;69172;52.352;5.006;2023-05-07T09:34:49;101748.56;;;19.77;65.07
79703;BME280;69172;52.352;5.006;2023-05-07T09:37:16;101735.31;;;19.71;65.62
79703;BME280;69172;52.352;5.006;2023-05-07T09:39:50;101748.47;;;19.74;65.27
79703;BME280;69172;52.352;5.006;2023-05-07T09:42:26;101739.06;;;19.79;64.42
79703;BME280;69172;52.352;5.006;2023-05-07T09:44:56;101745.84;;;19.74;64.96
79703;BME280;69172;52.352;5.006;2023-05-07T09:47:24;101751.75;;;19.95;65.21
79703;BME280;69172;52.352;5.006;2023-05-07T09:49:56;101746.44;;;19.92;64.25
79703;BME280;69172;52.352;5.006;2023-05-07T09:52:23;101742.59;;;19.81;65.20
79703;BME280;69172;52.352;5.006;2023-05-07T09:54:50;101737.13;;;20.00;64.50
79703;BME280;69172;52.352;5.006;2023-05-07T09:57:16;101743.25;;;19.74;65.67
79703;BME280;69172;52.352;5.006;2023-05-07T09:59:44;101746.44;;;19.92;65.84
79703;BME280;69172;52.352;5.006;2023-05-07T10:02:11;101749.00;;;19.91;65.76
79703;BME280;69172;52.352;5.006;2023-05-07T10:04:39;101737.28;;;20.05;65.00
79703;BME280;69172;52.352;5.006;2023-05-07T10:07:06;101749.34;;;20.01;65.46
79703;BME280;69172;52.352;5.006;2023-05-07T10:09:33;101740.72;;;20.04;64.62
79703;BME280;69172;52.352;5.006;2023-05-07T10:12:04;101739.78;;;20.29;63.69
79703;BME280;69172;52.352;5.006;2023-05-07T10:14:30;101743.34;;;20.04;64.88
79703;BME280;69172;52.352;5.006;2023-05-07T10:16:55;101751.28;;;20.34;63.55
79703;BME280;69172;52.352;5.006;2023-05-07T10:19:21;101746.25;;;20.41;64.42
79703;BME280;69172;52.352;5.006;2023-05-07T10:22:03;101750.00;;;20.49;63.83
79703;BME280;69172;52.352;5.006;2023-05-07T10:24:33;101753.47;;;20.48;64.04
79703;BME280;69172;52.352;5.006;2023-05-07T10:27:06;101754.38;;;20.49;63.82
79703;BME280;69172;52.352;5.006;2023-05-07T10:29:39;101755.19;;;20.76;63.41
79703;BME280;69172;52.352;5.006;2023-05-07T10:32:39;101754.78;;;20.94;62.37
79703;BME280;69172;52.352;5.006;2023-05-07T10:35:19;101758.19;;;20.90;62.41
79703;BME280;69172;52.352;5.006;2023-05-07T10:37:46;101763.97;;;20.79;62.13
79703;BME280;69172;52.352;5.006;2023-05-07T10:40:12;101756.22;;;20.83;62.20
79703;BME280;69172;52.352;5.006;2023-05-07T10:42:38;101756.81;;;21.04;61.39
79703;BME280;69172;52.352;5.006;2023-05-07T10:45:14;101753.75;;;21.17;61.29
79703;BME280;69172;52.352;5.006;2023-05-07T10:50:30;101748.09;;;21.69;59.51
79703;BME280;69172;52.352;5.006;2023-05-07T11:01:53;101748.72;;;21.91;57.32
79703;BME280;69172;52.352;5.006;2023-05-07T11:04:18;101759.00;;;21.50;58.56
79703;BME280;69172;52.352;5.006;2023-05-07T11:15:12;101752.31;;;21.95;56.95
79703;BME280;69172;52.352;5.006;2023-05-07T11:17:58;101747.16;;;21.98;57.54
79703;BME280;69172;52.352;5.006;2023-05-07T11:26:02;101756.00;;;22.05;57.52
79703;BME280;69172;52.352;5.006;2023-05-07T11:28:28;101751.25;;;22.26;56.23
79703;BME280;69172;52.352;5.006;2023-05-07T11:30:57;101758.13;;;22.19;56.19
79703;BME280;69172;52.352;5.006;2023-05-07T11:33:23;101755.25;;;22.09;55.63
79703;BME280;69172;52.352;5.006;2023-05-07T11:35:57;101750.88;;;21.75;57.06
79703;BME280;69172;52.352;5.006;2023-05-07T11:38:24;101762.44;;;22.17;55.97
79703;BME280;69172;52.352;5.006;2023-05-07T11:40:55;101763.59;;;22.28;56.30
79703;BME280;69172;52.352;5.006;2023-05-07T11:43:21;101761.63;;;22.20;56.57
79703;BME280;69172;52.352;5.006;2023-05-07T11:45:48;101756.06;;;22.45;54.82
79703;BME280;69172;52.352;5.006;2023-05-07T11:48:14;101758.34;;;22.28;56.02
79703;BME280;69172;52.352;5.006;2023-05-07T11:51:02;101755.66;;;22.25;55.59
79703;BME280;69172;52.352;5.006;2023-05-07T11:53:38;101759.31;;;22.33;55.63
79703;BME280;69172;52.352;5.006;2023-05-07T11:56:12;101764.09;;;22.14;56.21
79703;BME280;69172;52.352;5.006;2023-05-07T11:58:38;101761.31;;;22.08;56.33
79703;BME280;69172;52.352;5.006;2023-05-07T12:01:07;101757.03;;;21.75;56.04
79703;BME280;69172;52.352;5.006;2023-05-07T12:03:34;101769.84;;;21.99;55.87
79703;BME280;69172;52.352;5.006;2023-05-07T12:06:00;101762.66;;;21.90;55.89
79703;BME280;69172;52.352;5.006;2023-05-07T12:08:25;101756.94;;;21.72;56.89
79703;BME280;69172;52.352;5.006;2023-05-07T12:10:51;101755.94;;;22.02;56.13
79703;BME280;69172;52.352;5.006;2023-05-07T12:13:20;101758.13;;;22.21;56.31
79703;BME280;69172;52.352;5.006;2023-05-07T12:15:50;101760.06;;;22.28;54.89
79703;BME280;69172;52.352;5.006;2023-05-07T12:18:16;101760.25;;;22.37;54.14
79703;BME280;69172;52.352;5.006;2023-05-07T12:20:42;101750.94;;;22.90;53.94
79703;BME280;69172;52.352;5.006;2023-05-07T12:23:07;101749.91;;;23.27;52.39
79703;BME280;69172;52.352;5.006;2023-05-07T12:25:41;101760.84;;;23.48;51.94
79703;BME280;69172;52.352;5.006;2023-05-07T12:28:14;101755.59;;;23.49;51.62
79703;BME280;69172;52.352;5.006;2023-05-07T12:30:45;101754.41;;;23.80;50.43
79703;BME280;69172;52.352;5.006;2023-05-07T12:33:11;101747.72;;;23.48;51.46
79703;BME280;69172;52.352;5.006;2023-05-07T12:35:42;101758.47;;;23.61;51.36
79703;BME280;69172;52.352;5.006;2023-05-07T12:38:09;101760.31;;;23.67;52.09
79703;BME280;69172;52.352;5.006;2023-05-07T12:40:55;101758.47;;;23.17;54.28
79703;BME280;69172;52.352;5.006;2023-05-07T12:43:24;101750.00;;;22.86;54.96
79703;BME280;69172;52.352;5.006;2023-05-07T12:45:55;101761.44;;;22.51;56.44
79703;BME280;69172;52.352;5.006;2023-05-07T12:48:22;101766.56;;;22.45;56.19
79703;BME280;69172;52.352;5.006;2023-05-07T12:50:53;101776.25;;;22.47;56.84
79703;BME280;69172;52.352;5.006;2023-05-07T12:53:21;101771.78;;;22.45;56.95
79703;BME280;69172;52.352;5.006;2023-05-07T12:55:49;101776.56;;;22.61;55.67
79703;BME280;69172;52.352;5.006;2023-05-07T12:58:23;101771.25;;;22.58;55.81
79703;BME280;69172;52.352;5.006;2023-05-07T13:00:51;101767.59;;;22.53;56.05
79703;BME280;69172;52.352;5.006;2023-05-07T13:03:25;101768.34;;;22.46;56.59
79703;BME280;69172;52.352;5.006;2023-05-07T13:05:51;101769.25;;;22.88;54.96
79703;BME280;69172;52.352;5.006;2023-05-07T13:08:27;101778.19;;;22.96;55.20
79703;BME280;69172;52.352;5.006;2023-05-07T13:10:53;101792.66;;;22.03;59.12
79703;BME280;69172;52.352;5.006;2023-05-07T13:13:19;101781.44;;;22.09;58.86
79703;BME280;69172;52.352;5.006;2023-05-07T13:15:48;101780.56;;;22.08;58.76
79703;BME280;69172;52.352;5.006;2023-05-07T13:18:14;101794.41;;;22.04;59.08